createdAt,value
2018-08-19T00:07:44.299Z,45.44
2018-08-19T00:17:48.149Z,45.68
2018-08-19T00:27:51.285Z,45.55
2018-08-19T00:37:55.158Z,44.89
2018-08-19T00:47:58.844Z,44.63
2018-08-19T00:58:01.882Z,45.44
2018-08-19T01:08:05.129Z,45.38
2018-08-19T01:18:08.549Z,44.66
2018-08-19T01:28:11.706Z,44.81
2018-08-19T01:38:14.879Z,45.38
2018-08-19T01:48:18.775Z,45.41
2018-08-19T01:58:22.415Z,44.50
2018-08-19T02:08:25.985Z,44.90
2018-08-19T02:18:30.549Z,44.56
2018-08-19T02:28:33.927Z,45.02
2018-08-19T02:38:38.280Z,44.75
2018-08-19T02:48:46.058Z,44.99
2018-08-19T02:58:49.621Z,44.62
2018-08-19T03:08:59.874Z,44.30
2018-08-19T03:19:03.327Z,45.08
2018-08-19T03:29:14.579Z,44.47
2018-08-19T03:39:18.139Z,45.15
2018-08-19T03:49:22.641Z,44.13
2018-08-19T03:59:26.511Z,44.52
2018-08-19T04:09:29.655Z,44.76
2018-08-19T04:19:33.979Z,44.00
2018-08-19T04:29:38.142Z,44.84
2018-08-19T04:39:42.489Z,44.19
2018-08-19T04:49:45.458Z,44.86
2018-08-19T04:59:49.685Z,43.91
2018-08-19T05:09:52.825Z,44.18
2018-08-19T05:20:11.388Z,44.74
2018-08-19T05:30:14.379Z,44.49
2018-08-19T05:40:18.290Z,43.88
2018-08-19T05:50:21.794Z,44.60
2018-08-19T06:00:28.174Z,44.72
2018-08-19T06:10:31.987Z,44.34
2018-08-19T06:20:35.905Z,49.00
2018-08-19T06:30:38.997Z,48.35
2018-08-19T06:40:42.253Z,48.32
2018-08-19T06:50:45.255Z,47.86
2018-08-19T07:00:48.428Z,49.15
2018-08-19T07:10:51.596Z,50.30
2018-08-19T07:20:54.799Z,48.43
2018-08-19T07:30:57.833Z,49.95
2018-08-19T07:41:00.958Z,48.35
2018-08-19T07:51:04.180Z,48.15
2018-08-19T08:01:07.261Z,47.85
2018-08-19T08:11:10.386Z,47.82
2018-08-19T08:21:14.898Z,46.08
2018-08-19T08:31:17.952Z,46.28
2018-08-19T08:41:21.023Z,46.30
2018-08-19T08:51:24.186Z,45.28
2018-08-19T09:01:27.323Z,45.70
2018-08-19T09:11:30.504Z,44.71
2018-08-19T09:21:33.558Z,44.92
2018-08-19T09:31:36.622Z,43.55
2018-08-19T09:41:39.746Z,44.23
2018-08-19T09:51:42.835Z,43.39
2018-08-19T10:01:47.025Z,42.81
2018-08-19T10:11:50.149Z,42.80
2018-08-19T10:21:53.497Z,42.45
2018-08-19T10:31:59.014Z,42.59
2018-08-19T10:42:20.238Z,39.91
2018-08-19T10:52:26.813Z,42.51
2018-08-19T11:02:30.010Z,42.51
2018-08-19T11:12:33.210Z,41.98
2018-08-19T11:22:36.245Z,42.94
2018-08-19T11:32:39.513Z,41.08
2018-08-19T11:42:42.579Z,42.11
2018-08-19T11:52:49.894Z,41.82
2018-08-19T12:02:52.910Z,42.02
2018-08-19T12:12:56.185Z,42.03
2018-08-19T12:22:59.291Z,42.28
2018-08-19T12:33:14.058Z,43.03
2018-08-19T12:43:17.185Z,41.41
2018-08-19T12:53:20.654Z,43.00
2018-08-19T13:03:26.407Z,42.01
2018-08-19T13:13:29.464Z,42.30
2018-08-19T13:23:32.754Z,43.15
2018-08-19T13:33:35.961Z,42.10
2018-08-19T13:43:39.148Z,42.29
2018-08-19T13:53:42.748Z,41.76
2018-08-19T14:03:45.785Z,42.97
2018-08-19T14:13:48.993Z,42.01
2018-08-19T14:23:52.080Z,42.34
2018-08-19T14:33:55.297Z,42.01
2018-08-19T14:44:02.532Z,41.93
2018-08-19T14:54:20.313Z,42.21
2018-08-19T15:04:23.534Z,41.48
2018-08-19T15:14:26.566Z,41.51
2018-08-19T15:24:29.757Z,42.06
2018-08-19T15:34:32.233Z,42.86
2018-08-19T15:44:34.739Z,44.42
2018-08-19T15:54:37.426Z,45.74
2018-08-19T16:04:39.936Z,44.83
2018-08-19T16:14:42.342Z,44.50
2018-08-19T16:24:44.777Z,48.59
2018-08-19T16:34:47.154Z,44.42
2018-08-19T16:44:49.729Z,42.97
2018-08-19T16:54:51.918Z,43.92
2018-08-19T17:04:54.278Z,43.96
2018-08-19T17:14:56.895Z,43.75
2018-08-19T17:25:00.026Z,42.45
2018-08-19T17:35:03.006Z,42.30
2018-08-19T17:45:06.101Z,40.90
2018-08-19T17:55:10.939Z,43.86
2018-08-19T18:05:13.370Z,42.81
2018-08-19T18:15:16.069Z,42.22
2018-08-19T18:25:18.480Z,43.17
2018-08-19T18:35:21.813Z,43.56
2018-08-19T18:45:24.537Z,43.83
2018-08-19T18:55:27.237Z,43.03
2018-08-19T19:05:30.423Z,42.79
2018-08-19T19:15:36.857Z,43.19
2018-08-19T19:25:40.980Z,43.37
2018-08-19T19:35:43.549Z,44.19
2018-08-19T19:45:53.675Z,45.54
2018-08-19T19:56:01.521Z,45.08
2018-08-19T20:06:04.494Z,46.26
2018-08-19T20:16:07.027Z,45.28
2018-08-19T20:26:10.144Z,45.56
2018-08-19T20:36:12.831Z,45.40
2018-08-19T20:46:16.244Z,44.44
2018-08-19T20:56:18.739Z,45.90
2018-08-19T21:16:31.589Z,45.50
2018-08-19T21:26:35.025Z,45.18
2018-08-19T21:36:37.600Z,45.54
2018-08-19T21:46:40.240Z,44.90
2018-08-19T21:56:43.336Z,45.88
2018-08-19T22:06:45.743Z,44.64
2018-08-19T22:16:48.997Z,45.06
2018-08-19T22:26:52.061Z,44.95
2018-08-19T22:36:55.117Z,44.88
2018-08-19T22:46:58.262Z,44.64
2018-08-19T22:57:01.542Z,45.76
2018-08-19T23:07:04.241Z,44.76
2018-08-19T23:17:07.003Z,45.83
2018-08-19T23:27:09.404Z,44.96
2018-08-19T23:37:12.016Z,45.47
2018-08-19T23:47:16.927Z,45.47
2018-08-19T23:57:19.560Z,45.72
